x

Halibut Bank (46146) Wave Buoy

10:00 - Wed 2nd Sep 2015 All times are PDT. -7 hours from GMT.

  • Sig Wave height 2.0ft
  • Peak Period 3s
  • Wind
    18mph, 22mph gusts
  • Sea Temp 55°f
  • Ar Temp 56°f
  • Sea Pressure 1012.7mb
  • Halibut Bank
  • Halibut Bank

More Historic Weather Station data

Upgrade to MSW Pro to gain access to the past 30 days of data for over 8000 Wavebouys and Weather Stations around the globe.

Join Pro

Comparision Forecast

View Surf forecast
   
Qua 09/02 10:00 2ft 3s 18 22 mph 1012.7mb 55f 56f
9:00 2.5ft 3s 18 22 mph 1012.6mb 55f 56f
8:00 1.6ft 2s 18 20 mph 1012.3mb 56f 57f
7:00 1.3ft 2s 18 20 mph 1012mb 57f 57f
6:00 1.3ft 2s 18 20 mph 1012mb 55f 57f
5:00 1.6ft 4s 16 18 mph 1011.8mb 54f 56f
4:00 1.6ft 4s 11 16 mph 1012mb 54f 56f
3:00 1.6ft 4s 9 11 mph 1012.1mb 55f 55f
2:00 1.3ft 3s 11 16 mph 1011.3mb 55f 56f
1:00 1.3ft 3s 13 20 mph 1011.3mb 55f 56f
12:00 1.3ft 3s 13 18 mph 1011.2mb 54f 57f
11:00 0.7ft 2s 13 16 mph 1011.1mb 54f 56f
10:00 1.3ft 3s 13
mph
1010.4mb 54f 56f
9:00 0.7ft 2s 9 16 mph 1010mb 55f 54f
8:00 0.7ft 2s 13 16 mph 1009.5mb 55f 57f
7:00 0.3ft 4s 16 18 mph 1009.1mb 55f 56f
6:00 0.3ft 3s 7 9 mph 1008.7mb 56f 56f
5:00 0.3ft 3s 4
mph
1008.3mb 57f 56f
4:00 0.3ft 4s 2 4 mph 1008.2mb 58f 57f
3:00 0.7ft 2s 2
mph
1007.9mb 55f 57f
2:00 0.7ft 3s 2
mph
1007.7mb 55f 56f
1:00 0.7ft 3s 7 9 mph 1007.3mb 55f 56f
12:00 0.7ft 3s 9 11 mph 1006.8mb 55f 57f
Ter 09/01 11:00 1ft 3s 7 9 mph 1006.2mb 55f 57f
10:00 1ft 3s 7
mph
1005.9mb 54f 57f
9:00 1.3ft 3s 9 13 mph 1005.7mb 54f 58f
8:00 1.6ft 4s 11 13 mph 1005.5mb 54f 58f
7:00 2ft 3s 13 18 mph 1005.6mb 54f 59f
6:00 2ft 3s 16 18 mph 1005.7mb 54f 58f
5:00 1.6ft 3s 16 18 mph 1006.5mb 55f 59f
4:00 2ft 3s 13 16 mph 1007.1mb 55f 58f
3:00 2ft 3s 20 22 mph 1007.4mb 54f 58f
2:00 1.6ft 3s 16 20 mph 1008mb 55f 58f
1:00 1.3ft 2s 18 22 mph 1008.1mb 55f 57f
12:00 1ft 2s 18 22 mph 1008.7mb 55f 58f
11:00 0.7ft 3s 11 13 mph 1009mb 55f 58f
10:00 0.3ft 2s 9 11 mph 1009mb 55f 58f
9:00 0.3ft 3s 4 9 mph 1009.1mb 55f 57f
8:00 0.7ft 3s 7 11 mph 1009.1mb 55f 57f
7:00 0.7ft 3s 4 9 mph 1008.9mb 55f 58f
6:00 1ft 3s 4 9 mph 1008.8mb 55f 57f
5:00 1.3ft 4s 9
mph
1009.3mb 55f 57f
4:00 1.6ft 4s 4 9 mph 1009.5mb 55f 58f
3:00 1.6ft 4s 7 9 mph 1009.5mb 56f 58f
2:00 2.5ft 4s 4 11 mph 1009.4mb 56f 58f
1:00 2.5ft 4s 7 9 mph 1008.9mb 56f 57f
12:00 2.5ft 4s 11 13 mph 1008.4mb 56f 57f
Seg 08/31 11:00 2.5ft 4s 16 20 mph 1007.9mb 55f 58f
10:00 2.5ft 4s 4 7 mph 1007.8mb 55f 58f
9:00 2.5ft 4s 13 16 mph 1006.9mb 55f 59f
8:00 2ft 4s 18 20 mph 1006.8mb 56f 60f
7:00 2ft 3s 13 16 mph 1007.2mb 56f 59f
6:00 2ft 4s 13 18 mph 1007.6mb 56f 61f
5:00 2.5ft 4s 16 18 mph 1007.6mb 56f 60f
3:00 3.5ft 4s 20 22 mph 1008.2mb 57f 58f
2:00 3ft 5s 20 22 mph 1008.8mb 58f 59f
1:00 3ft 4s 16 18 mph 1009.6mb 58f 58f
12:00 3ft 4s 20 25 mph 1009.6mb 58f 58f
11:00 3ft 4s 18 20 mph 1010mb 57f 58f
10:00 2.5ft 5s 18 20 mph 1009.9mb 57f 58f
9:00 2.5ft 4s 9 11 mph 1009.8mb 57f 58f
8:00 2.5ft 4s 16 18 mph 1009.6mb 56f 58f
7:00 2.5ft 4s 16 18 mph 1009.3mb 57f 59f
6:00 2ft 4s 18 22 mph 1008.9mb 58f 59f
5:00 2.5ft 3s 18 20 mph 1009.1mb 59f 60f
4:00 2.5ft 4s 18 25 mph 1009.2mb 58f 60f
3:00 3ft 4s 22 25 mph 1009.3mb 60f 59f
2:00 3.5ft 4s 22 27 mph 1009.8mb 60f 59f
1:00 3ft 4s 27 31 mph 1010.1mb 60f 59f
12:00 2.5ft 3s 22 29 mph 1010.1mb 60f 60f
Dom 08/30 11:00 2ft 3s 20 22 mph 1010.3mb 60f 62f
10:00 1.3ft 3s 18 20 mph 1010.9mb 60f 61f
9:00 1.6ft 3s 11 16 mph 1011.3mb 60f 61f
8:00 1.6ft 3s 18 20 mph 1011mb 60f 61f
7:00 1.3ft 3s 13 18 mph 1010.9mb 60f 61f
6:00 1.6ft 3s 11 13 mph 1011.1mb 61f 61f
5:00 2ft 3s 16 18 mph 1011.1mb 61f 61f
4:00 2ft 3s 18 22 mph 1010.8mb 61f 62f
3:00 2ft 3s 16 20 mph 1011.1mb 62f 61f
2:00 1.6ft 3s 16 20 mph 1011.3mb 62f 61f
1:00 1.6ft 3s 16 20 mph 1011.3mb 62f 60f
12:00 1.6ft 3s 13 18 mph 1011.1mb 62f 60f
11:00 1.3ft 3s 13 16 mph 1010.6mb 62f 59f
10:00 1ft 3s 11 13 mph 1010.3mb 62f 59f
9:00 1ft 3s 13 16 mph 1009.2mb 62f 59f
8:00 1ft 3s 7 9 mph 1008.5mb 62f 58f
7:00 1.3ft 3s 7 9 mph 1007.6mb 62f 58f